sensor_id;sensor_type;location;lat;lon;timestamp;P1;durP1;ratioP1;P2;durP2;ratioP2
57281;SDS011;43129;52.628;10.098;2023-11-19T00:00:34;8.15;;;5.00;;
57281;SDS011;43129;52.628;10.098;2023-11-19T00:03:00;6.20;;;4.82;;
57281;SDS011;43129;52.628;10.098;2023-11-19T00:05:26;8.40;;;5.40;;
57281;SDS011;43129;52.628;10.098;2023-11-19T00:07:55;7.45;;;5.30;;
57281;SDS011;43129;52.628;10.098;2023-11-19T00:10:20;7.88;;;5.40;;
57281;SDS011;43129;52.628;10.098;2023-11-19T00:12:49;6.47;;;4.95;;
57281;SDS011;43129;52.628;10.098;2023-11-19T00:15:18;6.82;;;4.95;;
57281;SDS011;43129;52.628;10.098;2023-11-19T00:17:45;5.78;;;4.25;;
57281;SDS011;43129;52.628;10.098;2023-11-19T00:20:12;5.97;;;4.70;;
57281;SDS011;43129;52.628;10.098;2023-11-19T00:22:46;6.05;;;4.88;;
57281;SDS011;43129;52.628;10.098;2023-11-19T00:25:13;8.05;;;5.57;;
57281;SDS011;43129;52.628;10.098;2023-11-19T00:27:39;6.30;;;4.63;;
57281;SDS011;43129;52.628;10.098;2023-11-19T00:30:10;7.10;;;4.40;;
57281;SDS011;43129;52.628;10.098;2023-11-19T00:32:36;7.38;;;5.28;;
57281;SDS011;43129;52.628;10.098;2023-11-19T00:35:03;6.97;;;5.28;;
57281;SDS011;43129;52.628;10.098;2023-11-19T00:37:29;7.13;;;5.38;;
57281;SDS011;43129;52.628;10.098;2023-11-19T00:39:55;9.65;;;5.57;;
57281;SDS011;43129;52.628;10.098;2023-11-19T00:42:23;7.65;;;5.70;;
57281;SDS011;43129;52.628;10.098;2023-11-19T00:44:52;7.47;;;5.50;;
57281;SDS011;43129;52.628;10.098;2023-11-19T00:47:18;7.35;;;5.35;;
57281;SDS011;43129;52.628;10.098;2023-11-19T00:49:45;7.68;;;5.13;;
57281;SDS011;43129;52.628;10.098;2023-11-19T00:52:14;7.70;;;6.50;;
57281;SDS011;43129;52.628;10.098;2023-11-19T00:54:40;7.25;;;5.82;;
57281;SDS011;43129;52.628;10.098;2023-11-19T00:57:06;9.25;;;5.88;;
57281;SDS011;43129;52.628;10.098;2023-11-19T00:59:33;8.13;;;5.93;;
57281;SDS011;43129;52.628;10.098;2023-11-19T01:01:59;7.20;;;5.55;;
57281;SDS011;43129;52.628;10.098;2023-11-19T01:04:32;7.50;;;5.70;;
57281;SDS011;43129;52.628;10.098;2023-11-19T01:06:59;7.13;;;5.65;;
57281;SDS011;43129;52.628;10.098;2023-11-19T01:09:24;7.88;;;6.03;;
57281;SDS011;43129;52.628;10.098;2023-11-19T01:11:51;8.20;;;5.70;;
57281;SDS011;43129;52.628;10.098;2023-11-19T01:14:20;7.45;;;5.63;;
57281;SDS011;43129;52.628;10.098;2023-11-19T01:16:46;7.28;;;5.55;;
57281;SDS011;43129;52.628;10.098;2023-11-19T01:19:14;6.43;;;4.80;;
57281;SDS011;43129;52.628;10.098;2023-11-19T01:21:40;6.78;;;5.18;;
57281;SDS011;43129;52.628;10.098;2023-11-19T01:24:08;7.95;;;5.53;;
57281;SDS011;43129;52.628;10.098;2023-11-19T01:26:34;5.55;;;4.60;;
57281;SDS011;43129;52.628;10.098;2023-11-19T01:29:00;7.10;;;4.72;;
57281;SDS011;43129;52.628;10.098;2023-11-19T01:31:26;8.13;;;5.30;;
57281;SDS011;43129;52.628;10.098;2023-11-19T01:33:52;6.93;;;4.70;;
57281;SDS011;43129;52.628;10.098;2023-11-19T01:36:17;6.47;;;4.82;;
57281;SDS011;43129;52.628;10.098;2023-11-19T01:38:45;6.05;;;4.65;;
57281;SDS011;43129;52.628;10.098;2023-11-19T01:41:13;7.28;;;5.25;;
57281;SDS011;43129;52.628;10.098;2023-11-19T01:43:39;6.90;;;4.93;;
57281;SDS011;43129;52.628;10.098;2023-11-19T01:46:08;7.15;;;5.05;;
57281;SDS011;43129;52.628;10.098;2023-11-19T01:48:39;7.15;;;5.40;;
57281;SDS011;43129;52.628;10.098;2023-11-19T01:51:08;7.75;;;4.97;;
57281;SDS011;43129;52.628;10.098;2023-11-19T01:53:36;6.22;;;4.80;;
57281;SDS011;43129;52.628;10.098;2023-11-19T01:56:07;7.90;;;5.80;;
57281;SDS011;43129;52.628;10.098;2023-11-19T01:58:35;7.60;;;5.55;;
57281;SDS011;43129;52.628;10.098;2023-11-19T02:01:01;7.60;;;5.75;;
57281;SDS011;43129;52.628;10.098;2023-11-19T02:03:31;7.07;;;5.10;;
57281;SDS011;43129;52.628;10.098;2023-11-19T02:06:04;6.82;;;5.30;;
57281;SDS011;43129;52.628;10.098;2023-11-19T02:08:37;7.75;;;5.32;;
57281;SDS011;43129;52.628;10.098;2023-11-19T02:11:03;8.25;;;5.30;;
57281;SDS011;43129;52.628;10.098;2023-11-19T02:13:34;6.75;;;5.32;;
57281;SDS011;43129;52.628;10.098;2023-11-19T02:16:02;7.68;;;4.97;;
57281;SDS011;43129;52.628;10.098;2023-11-19T02:18:28;6.68;;;4.40;;
57281;SDS011;43129;52.628;10.098;2023-11-19T02:20:58;6.88;;;4.93;;
57281;SDS011;43129;52.628;10.098;2023-11-19T02:23:27;7.80;;;4.93;;
57281;SDS011;43129;52.628;10.098;2023-11-19T02:28:59;8.60;;;5.75;;
57281;SDS011;43129;52.628;10.098;2023-11-19T02:31:25;11.38;;;5.95;;
57281;SDS011;43129;52.628;10.098;2023-11-19T02:33:52;9.65;;;6.22;;
57281;SDS011;43129;52.628;10.098;2023-11-19T02:36:20;8.75;;;6.30;;
57281;SDS011;43129;52.628;10.098;2023-11-19T02:38:46;8.93;;;6.63;;
57281;SDS011;43129;52.628;10.098;2023-11-19T02:41:14;8.13;;;6.50;;
57281;SDS011;43129;52.628;10.098;2023-11-19T02:43:42;10.15;;;6.80;;
57281;SDS011;43129;52.628;10.098;2023-11-19T02:46:13;9.65;;;6.63;;
57281;SDS011;43129;52.628;10.098;2023-11-19T02:48:39;8.60;;;6.18;;
57281;SDS011;43129;52.628;10.098;2023-11-19T02:51:08;9.75;;;7.00;;
57281;SDS011;43129;52.628;10.098;2023-11-19T02:53:34;11.45;;;6.82;;
57281;SDS011;43129;52.628;10.098;2023-11-19T02:56:02;13.60;;;7.35;;
57281;SDS011;43129;52.628;10.098;2023-11-19T02:58:42;10.68;;;7.40;;
57281;SDS011;43129;52.628;10.098;2023-11-19T03:01:09;13.60;;;7.68;;
57281;SDS011;43129;52.628;10.098;2023-11-19T03:03:44;11.68;;;7.47;;
57281;SDS011;43129;52.628;10.098;2023-11-19T03:06:14;9.95;;;7.03;;
57281;SDS011;43129;52.628;10.098;2023-11-19T03:08:39;11.07;;;6.90;;
57281;SDS011;43129;52.628;10.098;2023-11-19T03:11:07;9.07;;;6.88;;
57281;SDS011;43129;52.628;10.098;2023-11-19T03:13:33;9.90;;;6.88;;
57281;SDS011;43129;52.628;10.098;2023-11-19T03:16:01;8.48;;;6.82;;
57281;SDS011;43129;52.628;10.098;2023-11-19T03:18:27;8.93;;;6.53;;
57281;SDS011;43129;52.628;10.098;2023-11-19T03:20:53;11.85;;;7.10;;
57281;SDS011;43129;52.628;10.098;2023-11-19T03:23:23;10.68;;;7.07;;
57281;SDS011;43129;52.628;10.098;2023-11-19T03:25:52;7.68;;;5.85;;
57281;SDS011;43129;52.628;10.098;2023-11-19T03:28:25;6.40;;;5.55;;
57281;SDS011;43129;52.628;10.098;2023-11-19T03:30:51;9.15;;;5.78;;
57281;SDS011;43129;52.628;10.098;2023-11-19T03:33:20;10.52;;;6.10;;
57281;SDS011;43129;52.628;10.098;2023-11-19T03:35:46;9.38;;;5.57;;
57281;SDS011;43129;52.628;10.098;2023-11-19T03:38:12;9.10;;;5.25;;
57281;SDS011;43129;52.628;10.098;2023-11-19T03:40:40;5.80;;;4.82;;
57281;SDS011;43129;52.628;10.098;2023-11-19T03:43:06;7.78;;;4.57;;
57281;SDS011;43129;52.628;10.098;2023-11-19T03:45:31;6.90;;;4.60;;
57281;SDS011;43129;52.628;10.098;2023-11-19T03:47:59;7.05;;;4.18;;
57281;SDS011;43129;52.628;10.098;2023-11-19T03:50:27;6.50;;;4.53;;
57281;SDS011;43129;52.628;10.098;2023-11-19T03:52:56;5.15;;;4.07;;
57281;SDS011;43129;52.628;10.098;2023-11-19T03:55:21;6.95;;;4.20;;
57281;SDS011;43129;52.628;10.098;2023-11-19T03:57:49;5.70;;;3.80;;
57281;SDS011;43129;52.628;10.098;2023-11-19T04:00:17;6.22;;;3.95;;
57281;SDS011;43129;52.628;10.098;2023-11-19T04:02:45;5.38;;;4.20;;
57281;SDS011;43129;52.628;10.098;2023-11-19T04:05:11;5.40;;;4.00;;
57281;SDS011;43129;52.628;10.098;2023-11-19T04:07:39;6.53;;;3.53;;
57281;SDS011;43129;52.628;10.098;2023-11-19T04:10:05;5.75;;;3.67;;
57281;SDS011;43129;52.628;10.098;2023-11-19T04:12:34;7.90;;;4.43;;
57281;SDS011;43129;52.628;10.098;2023-11-19T04:15:00;5.40;;;3.90;;
57281;SDS011;43129;52.628;10.098;2023-11-19T04:17:33;6.95;;;4.40;;
57281;SDS011;43129;52.628;10.098;2023-11-19T04:19:59;5.35;;;3.95;;
57281;SDS011;43129;52.628;10.098;2023-11-19T04:22:25;5.68;;;4.03;;
57281;SDS011;43129;52.628;10.098;2023-11-19T04:24:51;5.70;;;4.13;;
57281;SDS011;43129;52.628;10.098;2023-11-19T04:27:19;6.50;;;4.25;;
57281;SDS011;43129;52.628;10.098;2023-11-19T04:29:45;5.70;;;4.40;;
57281;SDS011;43129;52.628;10.098;2023-11-19T04:32:15;7.38;;;4.72;;
57281;SDS011;43129;52.628;10.098;2023-11-19T04:34:42;8.90;;;4.38;;
57281;SDS011;43129;52.628;10.098;2023-11-19T04:37:10;7.15;;;4.57;;
57281;SDS011;43129;52.628;10.098;2023-11-19T04:39:38;8.02;;;4.25;;
57281;SDS011;43129;52.628;10.098;2023-11-19T04:42:06;6.32;;;4.60;;
57281;SDS011;43129;52.628;10.098;2023-11-19T04:44:32;5.65;;;4.05;;
57281;SDS011;43129;52.628;10.098;2023-11-19T04:46:57;6.97;;;4.22;;
57281;SDS011;43129;52.628;10.098;2023-11-19T04:49:25;7.82;;;4.80;;
57281;SDS011;43129;52.628;10.098;2023-11-19T04:51:52;6.07;;;4.90;;
57281;SDS011;43129;52.628;10.098;2023-11-19T04:54:18;7.47;;;4.80;;
57281;SDS011;43129;52.628;10.098;2023-11-19T04:56:47;9.18;;;5.05;;
57281;SDS011;43129;52.628;10.098;2023-11-19T04:59:13;8.43;;;5.57;;
57281;SDS011;43129;52.628;10.098;2023-11-19T05:01:41;5.88;;;4.22;;
57281;SDS011;43129;52.628;10.098;2023-11-19T05:04:12;5.00;;;3.97;;
57281;SDS011;43129;52.628;10.098;2023-11-19T05:06:37;7.30;;;4.75;;
57281;SDS011;43129;52.628;10.098;2023-11-19T05:09:03;8.43;;;5.70;;
57281;SDS011;43129;52.628;10.098;2023-11-19T05:11:32;9.23;;;5.60;;
57281;SDS011;43129;52.628;10.098;2023-11-19T05:13:59;9.38;;;5.82;;
57281;SDS011;43129;52.628;10.098;2023-11-19T05:16:25;10.18;;;5.90;;
57281;SDS011;43129;52.628;10.098;2023-11-19T05:18:51;11.52;;;6.50;;
57281;SDS011;43129;52.628;10.098;2023-11-19T05:21:19;9.95;;;6.63;;
57281;SDS011;43129;52.628;10.098;2023-11-19T05:23:44;10.10;;;6.57;;
57281;SDS011;43129;52.628;10.098;2023-11-19T05:26:17;10.60;;;6.80;;
57281;SDS011;43129;52.628;10.098;2023-11-19T05:28:43;11.70;;;7.63;;
57281;SDS011;43129;52.628;10.098;2023-11-19T05:31:16;11.75;;;7.60;;
57281;SDS011;43129;52.628;10.098;2023-11-19T05:33:43;13.88;;;7.97;;
57281;SDS011;43129;52.628;10.098;2023-11-19T05:36:10;13.38;;;8.40;;
57281;SDS011;43129;52.628;10.098;2023-11-19T05:38:40;15.32;;;8.85;;
57281;SDS011;43129;52.628;10.098;2023-11-19T05:41:05;13.80;;;7.93;;
57281;SDS011;43129;52.628;10.098;2023-11-19T05:43:31;15.65;;;8.73;;
57281;SDS011;43129;52.628;10.098;2023-11-19T05:46:02;12.70;;;8.43;;
57281;SDS011;43129;52.628;10.098;2023-11-19T05:48:28;16.98;;;9.18;;
57281;SDS011;43129;52.628;10.098;2023-11-19T05:50:56;16.45;;;9.40;;
57281;SDS011;43129;52.628;10.098;2023-11-19T05:53:22;16.05;;;9.32;;
57281;SDS011;43129;52.628;10.098;2023-11-19T05:55:47;18.10;;;9.30;;
57281;SDS011;43129;52.628;10.098;2023-11-19T05:58:28;17.58;;;10.30;;
57281;SDS011;43129;52.628;10.098;2023-11-19T06:00:57;19.13;;;11.18;;
57281;SDS011;43129;52.628;10.098;2023-11-19T06:03:27;18.55;;;10.43;;
57281;SDS011;43129;52.628;10.098;2023-11-19T06:05:52;19.02;;;11.38;;
57281;SDS011;43129;52.628;10.098;2023-11-19T06:08:19;20.33;;;11.50;;
57281;SDS011;43129;52.628;10.098;2023-11-19T06:10:47;21.27;;;10.98;;
57281;SDS011;43129;52.628;10.098;2023-11-19T06:13:15;20.65;;;11.85;;
57281;SDS011;43129;52.628;10.098;2023-11-19T06:15:44;20.75;;;11.10;;
57281;SDS011;43129;52.628;10.098;2023-11-19T06:18:12;23.60;;;11.98;;
57281;SDS011;43129;52.628;10.098;2023-11-19T06:20:37;21.33;;;13.43;;
57281;SDS011;43129;52.628;10.098;2023-11-19T06:23:03;27.50;;;13.38;;
57281;SDS011;43129;52.628;10.098;2023-11-19T06:25:32;23.27;;;13.40;;
57281;SDS011;43129;52.628;10.098;2023-11-19T06:28:00;25.60;;;14.35;;
57281;SDS011;43129;52.628;10.098;2023-11-19T06:30:26;24.73;;;13.98;;
57281;SDS011;43129;52.628;10.098;2023-11-19T06:32:56;31.23;;;15.65;;
57281;SDS011;43129;52.628;10.098;2023-11-19T06:35:23;30.55;;;16.88;;
57281;SDS011;43129;52.628;10.098;2023-11-19T06:37:49;29.00;;;16.58;;
57281;SDS011;43129;52.628;10.098;2023-11-19T06:40:19;29.13;;;17.45;;
57281;SDS011;43129;52.628;10.098;2023-11-19T06:42:47;35.05;;;19.10;;
57281;SDS011;43129;52.628;10.098;2023-11-19T06:45:19;36.63;;;19.55;;
57281;SDS011;43129;52.628;10.098;2023-11-19T06:47:47;44.42;;;18.63;;
57281;SDS011;43129;52.628;10.098;2023-11-19T06:50:13;38.20;;;19.60;;
57281;SDS011;43129;52.628;10.098;2023-11-19T06:52:40;39.28;;;19.58;;
57281;SDS011;43129;52.628;10.098;2023-11-19T06:55:08;39.05;;;19.80;;
57281;SDS011;43129;52.628;10.098;2023-11-19T06:57:34;42.00;;;19.42;;
57281;SDS011;43129;52.628;10.098;2023-11-19T07:00:02;41.63;;;19.30;;
57281;SDS011;43129;52.628;10.098;2023-11-19T07:02:31;45.10;;;20.92;;
57281;SDS011;43129;52.628;10.098;2023-11-19T07:04:59;42.13;;;18.15;;
57281;SDS011;43129;52.628;10.098;2023-11-19T07:07:30;40.72;;;18.05;;
57281;SDS011;43129;52.628;10.098;2023-11-19T07:10:01;37.22;;;17.45;;
57281;SDS011;43129;52.628;10.098;2023-11-19T07:12:27;40.55;;;17.15;;
57281;SDS011;43129;52.628;10.098;2023-11-19T07:14:53;37.85;;;17.30;;
57281;SDS011;43129;52.628;10.098;2023-11-19T07:17:21;37.28;;;17.00;;
57281;SDS011;43129;52.628;10.098;2023-11-19T07:19:49;33.25;;;16.38;;
57281;SDS011;43129;52.628;10.098;2023-11-19T07:22:15;43.30;;;16.45;;
57281;SDS011;43129;52.628;10.098;2023-11-19T07:24:43;43.85;;;17.17;;
57281;SDS011;43129;52.628;10.098;2023-11-19T07:27:13;35.55;;;15.02;;
57281;SDS011;43129;52.628;10.098;2023-11-19T07:29:40;33.78;;;14.20;;
57281;SDS011;43129;52.628;10.098;2023-11-19T07:32:08;31.63;;;14.55;;
57281;SDS011;43129;52.628;10.098;2023-11-19T07:34:34;37.50;;;18.77;;
57281;SDS011;43129;52.628;10.098;2023-11-19T07:37:00;38.83;;;14.93;;
57281;SDS011;43129;52.628;10.098;2023-11-19T07:39:30;38.30;;;15.20;;
57281;SDS011;43129;52.628;10.098;2023-11-19T07:41:55;36.35;;;14.88;;
57281;SDS011;43129;52.628;10.098;2023-11-19T07:44:23;32.63;;;14.82;;
57281;SDS011;43129;52.628;10.098;2023-11-19T07:46:51;34.22;;;12.40;;
57281;SDS011;43129;52.628;10.098;2023-11-19T07:49:17;40.03;;;12.85;;
57281;SDS011;43129;52.628;10.098;2023-11-19T07:51:42;39.08;;;11.45;;
57281;SDS011;43129;52.628;10.098;2023-11-19T07:54:08;30.88;;;11.05;;
57281;SDS011;43129;52.628;10.098;2023-11-19T07:56:34;38.88;;;11.10;;
57281;SDS011;43129;52.628;10.098;2023-11-19T07:59:00;35.47;;;8.98;;
57281;SDS011;43129;52.628;10.098;2023-11-19T08:01:27;29.48;;;8.70;;
57281;SDS011;43129;52.628;10.098;2023-11-19T08:03:52;38.22;;;8.40;;
57281;SDS011;43129;52.628;10.098;2023-11-19T08:06:20;34.08;;;13.25;;
57281;SDS011;43129;52.628;10.098;2023-11-19T08:08:46;33.38;;;7.25;;
57281;SDS011;43129;52.628;10.098;2023-11-19T08:11:13;36.42;;;7.75;;
57281;SDS011;43129;52.628;10.098;2023-11-19T08:13:38;30.60;;;7.88;;
57281;SDS011;43129;52.628;10.098;2023-11-19T08:16:04;35.67;;;7.03;;
57281;SDS011;43129;52.628;10.098;2023-11-19T08:18:33;32.22;;;7.93;;
57281;SDS011;43129;52.628;10.098;2023-11-19T08:20:58;39.85;;;8.88;;
57281;SDS011;43129;52.628;10.098;2023-11-19T08:23:25;37.42;;;8.50;;
57281;SDS011;43129;52.628;10.098;2023-11-19T08:25:53;37.13;;;8.65;;
57281;SDS011;43129;52.628;10.098;2023-11-19T08:28:19;46.17;;;8.48;;
57281;SDS011;43129;52.628;10.098;2023-11-19T08:30:45;36.13;;;7.70;;
57281;SDS011;43129;52.628;10.098;2023-11-19T08:33:10;37.70;;;8.18;;
57281;SDS011;43129;52.628;10.098;2023-11-19T08:35:36;33.80;;;8.23;;
57281;SDS011;43129;52.628;10.098;2023-11-19T08:38:02;34.67;;;7.82;;
57281;SDS011;43129;52.628;10.098;2023-11-19T08:40:28;32.95;;;6.55;;
57281;SDS011;43129;52.628;10.098;2023-11-19T08:42:55;32.33;;;6.75;;
57281;SDS011;43129;52.628;10.098;2023-11-19T08:45:21;34.58;;;8.98;;
57281;SDS011;43129;52.628;10.098;2023-11-19T08:47:46;33.45;;;6.55;;
57281;SDS011;43129;52.628;10.098;2023-11-19T08:50:12;28.17;;;6.30;;
57281;SDS011;43129;52.628;10.098;2023-11-19T08:52:38;43.55;;;7.22;;
57281;SDS011;43129;52.628;10.098;2023-11-19T08:55:03;32.97;;;6.65;;
57281;SDS011;43129;52.628;10.098;2023-11-19T08:57:34;35.38;;;8.13;;
57281;SDS011;43129;52.628;10.098;2023-11-19T09:00:00;30.83;;;7.55;;
57281;SDS011;43129;52.628;10.098;2023-11-19T09:02:26;29.83;;;6.22;;
57281;SDS011;43129;52.628;10.098;2023-11-19T09:04:57;25.80;;;6.03;;
57281;SDS011;43129;52.628;10.098;2023-11-19T09:07:23;36.58;;;6.72;;
57281;SDS011;43129;52.628;10.098;2023-11-19T09:09:49;28.20;;;6.20;;
57281;SDS011;43129;52.628;10.098;2023-11-19T09:12:14;24.67;;;5.03;;
57281;SDS011;43129;52.628;10.098;2023-11-19T09:14:40;32.47;;;5.95;;
57281;SDS011;43129;52.628;10.098;2023-11-19T09:17:10;35.55;;;5.75;;
57281;SDS011;43129;52.628;10.098;2023-11-19T09:19:36;26.13;;;6.03;;
57281;SDS011;43129;52.628;10.098;2023-11-19T09:22:01;32.40;;;6.25;;
57281;SDS011;43129;52.628;10.098;2023-11-19T09:24:30;29.70;;;6.35;;
57281;SDS011;43129;52.628;10.098;2023-11-19T09:26:55;29.20;;;6.13;;
57281;SDS011;43129;52.628;10.098;2023-11-19T09:29:21;26.30;;;4.90;;
57281;SDS011;43129;52.628;10.098;2023-11-19T09:31:51;30.77;;;5.70;;
57281;SDS011;43129;52.628;10.098;2023-11-19T09:34:19;28.85;;;5.63;;
57281;SDS011;43129;52.628;10.098;2023-11-19T09:36:47;23.90;;;5.03;;
57281;SDS011;43129;52.628;10.098;2023-11-19T09:39:13;27.08;;;5.20;;
57281;SDS011;43129;52.628;10.098;2023-11-19T09:41:43;29.67;;;5.80;;
57281;SDS011;43129;52.628;10.098;2023-11-19T09:44:10;28.73;;;5.43;;
57281;SDS011;43129;52.628;10.098;2023-11-19T09:46:37;37.72;;;5.65;;
57281;SDS011;43129;52.628;10.098;2023-11-19T09:49:05;30.90;;;6.13;;
57281;SDS011;43129;52.628;10.098;2023-11-19T09:51:38;34.97;;;5.40;;
57281;SDS011;43129;52.628;10.098;2023-11-19T09:54:03;34.33;;;6.13;;
57281;SDS011;43129;52.628;10.098;2023-11-19T09:56:29;34.70;;;6.85;;
57281;SDS011;43129;52.628;10.098;2023-11-19T09:58:58;32.42;;;6.50;;
57281;SDS011;43129;52.628;10.098;2023-11-19T10:01:24;30.35;;;5.85;;
57281;SDS011;43129;52.628;10.098;2023-11-19T10:03:50;41.40;;;7.10;;
57281;SDS011;43129;52.628;10.098;2023-11-19T10:06:20;38.28;;;6.72;;
57281;SDS011;43129;52.628;10.098;2023-11-19T10:08:50;42.78;;;8.25;;
57281;SDS011;43129;52.628;10.098;2023-11-19T10:11:18;44.17;;;7.65;;
57281;SDS011;43129;52.628;10.098;2023-11-19T10:13:43;37.33;;;6.72;;
57281;SDS011;43129;52.628;10.098;2023-11-19T10:16:12;49.13;;;7.22;;
57281;SDS011;43129;52.628;10.098;2023-11-19T10:18:48;43.08;;;7.10;;
57281;SDS011;43129;52.628;10.098;2023-11-19T10:21:17;38.13;;;6.30;;
57281;SDS011;43129;52.628;10.098;2023-11-19T10:23:50;45.50;;;7.20;;
57281;SDS011;43129;52.628;10.098;2023-11-19T10:26:22;41.08;;;7.32;;
57281;SDS011;43129;52.628;10.098;2023-11-19T10:28:48;35.70;;;6.15;;
57281;SDS011;43129;52.628;10.098;2023-11-19T10:31:17;44.65;;;6.82;;
57281;SDS011;43129;52.628;10.098;2023-11-19T10:33:51;33.60;;;6.32;;
57281;SDS011;43129;52.628;10.098;2023-11-19T10:36:18;38.70;;;7.30;;
57281;SDS011;43129;52.628;10.098;2023-11-19T10:38:54;43.17;;;7.03;;
57281;SDS011;43129;52.628;10.098;2023-11-19T10:41:31;40.05;;;7.07;;
57281;SDS011;43129;52.628;10.098;2023-11-19T10:44:00;45.97;;;9.88;;
57281;SDS011;43129;52.628;10.098;2023-11-19T10:46:39;36.00;;;6.53;;
57281;SDS011;43129;52.628;10.098;2023-11-19T10:49:06;31.80;;;5.88;;
57281;SDS011;43129;52.628;10.098;2023-11-19T10:51:32;37.10;;;6.60;;
57281;SDS011;43129;52.628;10.098;2023-11-19T10:54:04;36.08;;;6.32;;
57281;SDS011;43129;52.628;10.098;2023-11-19T10:56:31;38.65;;;6.57;;
57281;SDS011;43129;52.628;10.098;2023-11-19T10:58:58;35.70;;;5.78;;
57281;SDS011;43129;52.628;10.098;2023-11-19T11:01:26;41.53;;;6.28;;
57281;SDS011;43129;52.628;10.098;2023-11-19T11:03:58;34.03;;;5.65;;
57281;SDS011;43129;52.628;10.098;2023-11-19T11:06:25;35.13;;;5.55;;
57281;SDS011;43129;52.628;10.098;2023-11-19T11:08:53;39.30;;;6.53;;
57281;SDS011;43129;52.628;10.098;2023-11-19T11:11:20;35.38;;;5.57;;
57281;SDS011;43129;52.628;10.098;2023-11-19T11:13:47;45.55;;;7.30;;
57281;SDS011;43129;52.628;10.098;2023-11-19T11:16:16;34.90;;;6.20;;
57281;SDS011;43129;52.628;10.098;2023-11-19T11:18:44;40.78;;;6.35;;
57281;SDS011;43129;52.628;10.098;2023-11-19T11:21:20;37.85;;;6.07;;
57281;SDS011;43129;52.628;10.098;2023-11-19T11:37:49;27.50;;;5.43;;
57281;SDS011;43129;52.628;10.098;2023-11-19T11:40:18;32.05;;;6.18;;
57281;SDS011;43129;52.628;10.098;2023-11-19T11:42:48;31.98;;;9.38;;
57281;SDS011;43129;52.628;10.098;2023-11-19T11:45:16;30.48;;;6.07;;
57281;SDS011;43129;52.628;10.098;2023-11-19T11:48:09;29.08;;;5.82;;
57281;SDS011;43129;52.628;10.098;2023-11-19T11:50:51;29.88;;;5.57;;
57281;SDS011;43129;52.628;10.098;2023-11-19T11:53:22;26.13;;;5.18;;
57281;SDS011;43129;52.628;10.098;2023-11-19T11:58:21;34.97;;;10.02;;
57281;SDS011;43129;52.628;10.098;2023-11-19T12:00:51;30.58;;;5.10;;
57281;SDS011;43129;52.628;10.098;2023-11-19T12:03:18;33.30;;;5.40;;
57281;SDS011;43129;52.628;10.098;2023-11-19T12:05:47;31.63;;;6.05;;
57281;SDS011;43129;52.628;10.098;2023-11-19T12:08:15;29.45;;;5.32;;
57281;SDS011;43129;52.628;10.098;2023-11-19T12:13:20;46.15;;;14.10;;
57281;SDS011;43129;52.628;10.098;2023-11-19T12:20:49;32.20;;;5.47;;
57281;SDS011;43129;52.628;10.098;2023-11-19T12:23:15;60.28;;;13.90;;
57281;SDS011;43129;52.628;10.098;2023-11-19T12:25:41;34.97;;;6.15;;
57281;SDS011;43129;52.628;10.098;2023-11-19T12:28:11;27.95;;;5.13;;
57281;SDS011;43129;52.628;10.098;2023-11-19T12:30:38;32.45;;;6.22;;
57281;SDS011;43129;52.628;10.098;2023-11-19T12:33:09;25.98;;;5.75;;
57281;SDS011;43129;52.628;10.098;2023-11-19T12:35:39;25.85;;;5.35;;
57281;SDS011;43129;52.628;10.098;2023-11-19T12:38:22;31.73;;;6.30;;
57281;SDS011;43129;52.628;10.098;2023-11-19T12:41:09;28.38;;;7.15;;
57281;SDS011;43129;52.628;10.098;2023-11-19T12:43:38;27.90;;;5.55;;
57281;SDS011;43129;52.628;10.098;2023-11-19T12:48:46;37.35;;;6.57;;
57281;SDS011;43129;52.628;10.098;2023-11-19T12:51:12;25.38;;;7.05;;
57281;SDS011;43129;52.628;10.098;2023-11-19T12:53:53;32.88;;;5.25;;
57281;SDS011;43129;52.628;10.098;2023-11-19T12:56:24;33.20;;;6.10;;
57281;SDS011;43129;52.628;10.098;2023-11-19T12:58:52;24.55;;;5.55;;
57281;SDS011;43129;52.628;10.098;2023-11-19T13:01:18;46.28;;;16.20;;
57281;SDS011;43129;52.628;10.098;2023-11-19T13:03:47;27.83;;;6.60;;
57281;SDS011;43129;52.628;10.098;2023-11-19T13:06:16;27.10;;;5.57;;
57281;SDS011;43129;52.628;10.098;2023-11-19T13:08:51;25.70;;;6.20;;
57281;SDS011;43129;52.628;10.098;2023-11-19T13:11:33;32.92;;;6.43;;
57281;SDS011;43129;52.628;10.098;2023-11-19T13:14:02;35.25;;;6.15;;
57281;SDS011;43129;52.628;10.098;2023-11-19T13:16:39;23.33;;;5.15;;
57281;SDS011;43129;52.628;10.098;2023-11-19T13:19:07;34.03;;;6.40;;
57281;SDS011;43129;52.628;10.098;2023-11-19T13:21:33;34.83;;;5.40;;
57281;SDS011;43129;52.628;10.098;2023-11-19T13:23:59;30.42;;;5.93;;
57281;SDS011;43129;52.628;10.098;2023-11-19T13:26:25;34.45;;;5.43;;
57281;SDS011;43129;52.628;10.098;2023-11-19T13:28:50;30.38;;;6.60;;
57281;SDS011;43129;52.628;10.098;2023-11-19T13:31:18;26.90;;;5.78;;
57281;SDS011;43129;52.628;10.098;2023-11-19T13:33:44;30.38;;;6.10;;
57281;SDS011;43129;52.628;10.098;2023-11-19T13:36:10;36.92;;;6.38;;
57281;SDS011;43129;52.628;10.098;2023-11-19T13:38:38;22.55;;;5.47;;
57281;SDS011;43129;52.628;10.098;2023-11-19T13:41:14;28.60;;;7.03;;
57281;SDS011;43129;52.628;10.098;2023-11-19T13:43:40;30.52;;;6.88;;
57281;SDS011;43129;52.628;10.098;2023-11-19T13:46:05;25.48;;;5.95;;
57281;SDS011;43129;52.628;10.098;2023-11-19T13:48:33;28.55;;;7.40;;
57281;SDS011;43129;52.628;10.098;2023-11-19T13:50:59;31.38;;;7.18;;
57281;SDS011;43129;52.628;10.098;2023-11-19T13:53:24;34.67;;;8.52;;
57281;SDS011;43129;52.628;10.098;2023-11-19T13:55:50;32.70;;;7.97;;
57281;SDS011;43129;52.628;10.098;2023-11-19T13:58:16;27.13;;;6.40;;
57281;SDS011;43129;52.628;10.098;2023-11-19T14:00:42;31.88;;;5.95;;
57281;SDS011;43129;52.628;10.098;2023-11-19T14:03:08;34.05;;;7.70;;
57281;SDS011;43129;52.628;10.098;2023-11-19T14:05:37;34.28;;;8.65;;
57281;SDS011;43129;52.628;10.098;2023-11-19T14:08:07;35.78;;;7.80;;
57281;SDS011;43129;52.628;10.098;2023-11-19T14:10:41;41.60;;;8.90;;
57281;SDS011;43129;52.628;10.098;2023-11-19T14:13:06;38.22;;;7.35;;
57281;SDS011;43129;52.628;10.098;2023-11-19T14:15:32;36.63;;;8.00;;
57281;SDS011;43129;52.628;10.098;2023-11-19T14:17:58;42.83;;;8.68;;
57281;SDS011;43129;52.628;10.098;2023-11-19T14:20:28;33.63;;;7.35;;
57281;SDS011;43129;52.628;10.098;2023-11-19T14:22:54;36.53;;;7.70;;
57281;SDS011;43129;52.628;10.098;2023-11-19T14:25:19;42.15;;;7.43;;
57281;SDS011;43129;52.628;10.098;2023-11-19T14:27:46;34.70;;;6.95;;
57281;SDS011;43129;52.628;10.098;2023-11-19T14:30:12;35.13;;;7.20;;
57281;SDS011;43129;52.628;10.098;2023-11-19T14:32:41;37.47;;;7.60;;
57281;SDS011;43129;52.628;10.098;2023-11-19T14:35:09;35.88;;;6.82;;
57281;SDS011;43129;52.628;10.098;2023-11-19T14:37:35;33.38;;;7.20;;
57281;SDS011;43129;52.628;10.098;2023-11-19T14:40:01;35.22;;;7.18;;
57281;SDS011;43129;52.628;10.098;2023-11-19T14:42:33;31.08;;;6.95;;
57281;SDS011;43129;52.628;10.098;2023-11-19T14:44:58;37.45;;;6.05;;
57281;SDS011;43129;52.628;10.098;2023-11-19T14:47:24;27.90;;;5.93;;
57281;SDS011;43129;52.628;10.098;2023-11-19T14:49:52;38.53;;;7.80;;
57281;SDS011;43129;52.628;10.098;2023-11-19T14:52:20;42.10;;;8.52;;
57281;SDS011;43129;52.628;10.098;2023-11-19T14:54:46;40.97;;;9.25;;
57281;SDS011;43129;52.628;10.098;2023-11-19T14:57:16;45.05;;;9.63;;